Oelwein, IA

11:17 PM CST on December 09, 2019 (GMT -0600)
Oelwein Municipal

Weather History for KOLZ - October, 2019

Change the Weather History Date:

Tuesday, October 15, 2019

  Actual Average Record
Temperature  
Mean Temperature 50 °F -  
Max Temperature 57 °F 62 °F 84 °F (1953)
Min Temperature 42 °F 40 °F 18 °F (1952)
Degree Days  
Heating Degree Days 16    
Moisture  
Dew Point 42 °F    
Average Humidity 80    
Maximum Humidity 100    
Minimum Humidity 51    
Precipitation  
Precipitation 0.00 in - - ()
Sea Level Pressure  
Sea Level Pressure 29.85 in    
Wind  
Wind Speed 12 mph (West)    
Max Wind Speed 25 mph    
Max Gust Speed 33 mph    
Visibility 10 miles    
Events      
Averages and records for this station are not official NWS values.
T = Trace of Precipitation, MM = Missing Value Source: NWS Daily Summary

Daily Weather History Graph

Daily Weather History Graph

Search for Another Location

Airport or City:

Astronomy

Oct. 15, 2019 Rise Set
Actual Time 7:20 AM CDT 6:25 PM CDT
Civil Twilight 6:52 AM CDT 6:54 PM CDT
Nautical Twilight 6:19 AM CDT 7:26 PM CDT
Astronomical Twilight 5:46 AM CDT 7:59 PM CDT
Moon 7:44 PM CDT (10/15) 8:52 AM CDT (10/15)
Length of Visible Light 12h 01m
Length of Day
11h 05m
Full, 97% of the Moon is Illuminated
Oct 15
Full
Oct 21
Last Quarter
Oct 27
New
Nov 4
First Quarter
Nov 12
Full

Hourly Weather History & Observations

Time (CDT) Temp. Windchill Dew Point Humidity Pressure Visibility Wind Dir Wind Speed Gust Speed Precip Events Conditions
12:15 AM 42.8 °F 38.6 °F 39.2 °F 87% 29.93 in 10.0 mi ESE 6.9 mph - N/A   Partly Cloudy
12:35 AM 42.8 °F 38.0 °F 39.2 °F 87% 29.92 in 10.0 mi ESE 8.1 mph - N/A   Mostly Cloudy
12:55 AM 44.6 °F 39.7 °F 41.0 °F 87% 29.91 in 10.0 mi ESE 9.2 mph - N/A   Mostly Cloudy
1:15 AM 44.6 °F 39.2 °F 41.0 °F 87% 29.90 in 10.0 mi ESE 10.4 mph - N/A   Overcast
1:35 AM 44.6 °F 39.7 °F 41.0 °F 87% 29.89 in 10.0 mi ESE 9.2 mph - N/A   Overcast
1:55 AM 46.4 °F 41.9 °F 41.0 °F 81% 29.88 in 10.0 mi ESE 9.2 mph - N/A   Overcast
2:15 AM 46.4 °F 41.5 °F 41.0 °F 81% 29.87 in 10.0 mi SE 10.4 mph - N/A   Overcast
2:35 AM 46.4 °F 41.5 °F 41.0 °F 81% 29.86 in 10.0 mi SE 10.4 mph - N/A   Overcast
3:15 AM 46.4 °F 41.5 °F 41.0 °F 81% 29.84 in 10.0 mi SE 10.4 mph - N/A   Overcast
3:35 AM 48.2 °F - 41.0 °F 76% 29.83 in 10.0 mi SSE 11.5 mph - N/A   Overcast
3:55 AM 48.2 °F - 41.0 °F 76% 29.81 in 10.0 mi SE 12.7 mph - N/A   Overcast
4:15 AM 48.2 °F - 41.0 °F 76% 29.80 in 10.0 mi SSE 11.5 mph - N/A   Overcast
4:35 AM 48.2 °F - 42.8 °F 82% 29.80 in 10.0 mi SSE 10.4 mph - N/A   Overcast
4:55 AM 48.2 °F - 42.8 °F 82% 29.79 in 10.0 mi SSE 9.2 mph - N/A   Mostly Cloudy
5:15 AM 48.2 °F - 42.8 °F 82% 29.79 in 10.0 mi SSE 10.4 mph - N/A   Mostly Cloudy
5:35 AM 48.2 °F - 42.8 °F 82% 29.78 in 10.0 mi SSE 10.4 mph 16.1 mph N/A   Mostly Cloudy
5:55 AM 46.4 °F 41.9 °F 42.8 °F 87% 29.77 in 10.0 mi SSE 9.2 mph - N/A   Scattered Clouds
6:15 AM 46.4 °F 41.5 °F 42.8 °F 87% 29.78 in 10.0 mi SSE 10.4 mph - N/A   Partly Cloudy
6:35 AM 46.4 °F 42.4 °F 42.8 °F 87% 29.77 in 10.0 mi SSE 8.1 mph - N/A   Clear
6:55 AM 44.6 °F 39.7 °F 42.8 °F 93% 29.77 in 10.0 mi SSE 9.2 mph - N/A   Clear
7:15 AM 44.6 °F 39.2 °F 42.8 °F 93% 29.76 in 10.0 mi SSE 10.4 mph - N/A   Clear
7:35 AM 44.6 °F 40.2 °F 44.6 °F 100% 29.76 in 10.0 mi SSE 8.1 mph - N/A   Clear
7:55 AM 44.6 °F 40.2 °F 44.6 °F 100% 29.76 in 10.0 mi South 8.1 mph - N/A   Clear
8:15 AM 46.4 °F 42.4 °F 44.6 °F 93% 29.76 in 10.0 mi South 8.1 mph - N/A   Clear
8:35 AM 46.4 °F 42.4 °F 46.4 °F 100% 29.75 in 10.0 mi South 8.1 mph - N/A   Clear
8:55 AM 48.2 °F - 46.4 °F 93% 29.75 in 10.0 mi SSW 6.9 mph - N/A   Clear
9:15 AM 50.0 °F - 48.2 °F 94% 29.75 in 10.0 mi SSW 9.2 mph - N/A   Clear
9:35 AM 51.8 °F - 48.2 °F 88% 29.75 in 10.0 mi West 8.1 mph - N/A   Clear
9:55 AM 53.6 °F - 48.2 °F 82% 29.75 in 10.0 mi West 10.4 mph 18.4 mph N/A   Clear
10:15 AM 53.6 °F - 48.2 °F 82% 29.76 in 10.0 mi WNW 12.7 mph 20.7 mph N/A   Clear
10:35 AM 53.6 °F - 48.2 °F 82% 29.76 in 10.0 mi WNW 15.0 mph - N/A   Clear
10:55 AM 53.6 °F - 48.2 °F 82% 29.77 in 10.0 mi WNW 13.8 mph 19.6 mph N/A   Clear
11:15 AM 53.6 °F - 46.4 °F 77% 29.78 in 10.0 mi WNW 16.1 mph - N/A   Clear
11:35 AM 51.8 °F - 46.4 °F 82% 29.79 in 10.0 mi WNW 19.6 mph - N/A   Clear
11:55 AM 51.8 °F - 46.4 °F 82% 29.80 in 10.0 mi WNW 16.1 mph 25.3 mph N/A   Clear
12:15 PM 51.8 °F - 44.6 °F 76% 29.80 in 10.0 mi WNW 16.1 mph - N/A   Clear
12:35 PM 51.8 °F - 44.6 °F 76% 29.81 in 10.0 mi WNW 19.6 mph - N/A   Clear
12:55 PM 50.0 °F - 42.8 °F 76% 29.82 in 10.0 mi WNW 17.3 mph 26.5 mph N/A   Clear
1:15 PM 50.0 °F - 42.8 °F 76% 29.81 in 10.0 mi WNW 15.0 mph 24.2 mph N/A   Clear
1:35 PM 50.0 °F - 42.8 °F 76% 29.81 in 10.0 mi WNW 16.1 mph - N/A   Clear
1:55 PM 50.0 °F - 42.8 °F 76% 29.81 in 10.0 mi WNW 18.4 mph - N/A   Clear
2:15 PM 51.8 °F - 42.8 °F 71% 29.81 in 10.0 mi WNW 16.1 mph 25.3 mph N/A   Clear
2:35 PM 55.4 °F - 41.0 °F 58% 29.81 in 10.0 mi WNW 20.7 mph 27.6 mph N/A   Partly Cloudy
2:55 PM 55.4 °F - 41.0 °F 58% 29.80 in 10.0 mi WNW 23.0 mph 29.9 mph N/A   Scattered Clouds
3:15 PM 57.2 °F - 41.0 °F 55% 29.81 in 10.0 mi NW 18.4 mph 27.6 mph N/A   Scattered Clouds
3:35 PM 57.2 °F - 41.0 °F 55% 29.82 in 10.0 mi NW 21.9 mph 27.6 mph N/A   Scattered Clouds
3:55 PM 57.2 °F - 39.2 °F 51% 29.82 in 10.0 mi NW 20.7 mph 28.8 mph N/A   Mostly Cloudy
4:15 PM 53.6 °F - 39.2 °F 58% 29.83 in 10.0 mi NW 18.4 mph 25.3 mph N/A   Scattered Clouds
4:35 PM 55.4 °F - 39.2 °F 54% 29.83 in 10.0 mi NW 21.9 mph - N/A   Partly Cloudy
4:55 PM 55.4 °F - 37.4 °F 51% 29.84 in 10.0 mi WNW 20.7 mph 27.6 mph N/A   Mostly Cloudy
5:15 PM 53.6 °F - 37.4 °F 54% 29.86 in 10.0 mi WNW 18.4 mph 33.4 mph N/A   Overcast
5:35 PM 51.8 °F - 39.2 °F 62% 29.86 in 10.0 mi WNW 25.3 mph - N/A   Overcast
5:55 PM 50.0 °F - 41.0 °F 71% 29.88 in 10.0 mi WNW 13.8 mph 21.9 mph N/A   Mostly Cloudy
6:15 PM 48.2 °F - 41.0 °F 76% 29.89 in 10.0 mi WNW 19.6 mph 28.8 mph N/A   Partly Cloudy
6:35 PM 46.4 °F 39.5 °F 41.0 °F 81% 29.90 in 10.0 mi WNW 17.3 mph 27.6 mph N/A   Scattered Clouds
6:55 PM 46.4 °F 39.8 °F 41.0 °F 81% 29.91 in 10.0 mi WNW 16.1 mph 25.3 mph N/A   Overcast
7:15 PM 46.4 °F 39.2 °F 41.0 °F 81% 29.92 in 10.0 mi WNW 18.4 mph 25.3 mph N/A   Overcast
7:35 PM 46.4 °F 39.5 °F 41.0 °F 81% 29.93 in 10.0 mi WNW 17.3 mph 24.2 mph N/A   Overcast
7:55 PM 46.4 °F 40.1 °F 41.0 °F 81% 29.93 in 10.0 mi WNW 15.0 mph 23.0 mph N/A   Overcast
8:15 PM 46.4 °F 40.1 °F 41.0 °F 81% 29.94 in 10.0 mi WNW 15.0 mph - N/A   Overcast
8:35 PM 46.4 °F 39.8 °F 41.0 °F 81% 29.94 in 10.0 mi WNW 16.1 mph 25.3 mph N/A   Overcast
8:55 PM 46.4 °F 39.8 °F 41.0 °F 81% 29.95 in 10.0 mi NW 16.1 mph 24.2 mph N/A   Overcast
9:15 PM 46.4 °F 39.2 °F 41.0 °F 81% 29.95 in 10.0 mi NW 18.4 mph - N/A   Overcast
9:35 PM 46.4 °F 39.2 °F 41.0 °F 81% 29.96 in 10.0 mi NW 18.4 mph 24.2 mph N/A   Overcast
9:55 PM 44.6 °F 37.8 °F 41.0 °F 87% 29.97 in 10.0 mi WNW 15.0 mph 20.7 mph N/A   Overcast
10:15 PM 44.6 °F 37.8 °F 41.0 °F 87% 29.97 in 10.0 mi NW 15.0 mph 24.2 mph N/A   Overcast
10:35 PM 44.6 °F 37.8 °F 41.0 °F 87% 29.97 in 10.0 mi WNW 15.0 mph 20.7 mph N/A   Overcast
10:55 PM 44.6 °F 37.8 °F 41.0 °F 87% 29.98 in 10.0 mi NW 15.0 mph - N/A   Overcast
11:15 PM 44.6 °F 38.4 °F 41.0 °F 87% 29.98 in 10.0 mi WNW 12.7 mph - N/A   Overcast
11:35 PM 42.8 °F 35.4 °F 42.8 °F 100% 29.99 in 10.0 mi NW 15.0 mph - N/A   Overcast
11:55 PM 42.8 °F 35.4 °F 42.8 °F 100% 29.99 in 4.0 mi NW 15.0 mph - N/A   Overcast